<?xml version="1.0" encoding="UTF-8" standalone="no" ?>
<gpx xmlns="http://www.topografix.com/GPX/1/1" xmlns:xsi="http://www.w3.org/2001/XMLSchema-instance" xsi:schemaLocation="http://www.topografix.com/GPX/1/1 http://www.topografix.com/GPX/1/1/gpx.xsd" version="1.1" creator="VisuGPX - https://www.visugpx.com">
  <metadata>
    <name>Argentina</name>
    <desc><![CDATA[Downloaded from eMap Software Version 2.75]]></desc>
  </metadata>
  <trk>
    <name><![CDATA[Argentina_179]]></name>
    <extensions>
      <line xmlns="http://www.topografix.com/GPX/gpx_style/0/2">
        <color>ff0000</color>
        <opacity>0.78</opacity>
        <width>0.6000</width>
      </line>
    </extensions>
    <trkseg>
      <trkpt lat="43.61572" lon="6.9454">
        <ele>74.639526</ele>
        <time>2010-04-01T10:51:00Z</time>
      </trkpt>
      <trkpt lat="43.61568" lon="6.94544">
        <ele>61.18103</ele>
        <time>2010-04-01T10:51:07Z</time>
      </trkpt>
      <trkpt lat="43.61566" lon="6.94553">
        <ele>49.164551</ele>
        <time>2010-04-01T10:51:09Z</time>
      </trkpt>
      <trkpt lat="43.61562" lon="6.94533">
        <ele>56.855103</ele>
        <time>2010-04-01T10:51:19Z</time>
      </trkpt>
      <trkpt lat="43.61557" lon="6.94523">
        <ele>65.50708</ele>
        <time>2010-04-01T10:51:24Z</time>
      </trkpt>
      <trkpt lat="43.61536" lon="6.94514">
        <ele>65.987671</ele>
        <time>2010-04-01T10:51:42Z</time>
      </trkpt>
      <trkpt lat="43.61534" lon="6.94521">
        <ele>65.987671</ele>
        <time>2010-04-01T10:51:45Z</time>
      </trkpt>
      <trkpt lat="43.61506" lon="6.94514">
        <ele>67.429688</ele>
        <time>2010-04-01T10:52:08Z</time>
      </trkpt>
      <trkpt lat="43.61478" lon="6.94512">
        <ele>69.352295</ele>
        <time>2010-04-01T10:52:31Z</time>
      </trkpt>
      <trkpt lat="43.61437" lon="6.94521">
        <ele>70.794189</ele>
        <time>2010-04-01T10:53:06Z</time>
      </trkpt>
      <trkpt lat="43.61422" lon="6.9454">
        <ele>70.794189</ele>
        <time>2010-04-01T10:53:35Z</time>
      </trkpt>
      <trkpt lat="43.61452" lon="6.94621">
        <ele>70.313477</ele>
        <time>2010-04-01T10:53:44Z</time>
      </trkpt>
      <trkpt lat="43.61452" lon="6.94662">
        <ele>69.832886</ele>
        <time>2010-04-01T10:54:09Z</time>
      </trkpt>
      <trkpt lat="43.61452" lon="6.94686">
        <ele>69.352295</ele>
        <time>2010-04-01T10:54:28Z</time>
      </trkpt>
      <trkpt lat="43.61441" lon="6.94735">
        <ele>68.390869</ele>
        <time>2010-04-01T10:54:59Z</time>
      </trkpt>
      <trkpt lat="43.61426" lon="6.94784">
        <ele>68.390869</ele>
        <time>2010-04-01T10:55:52Z</time>
      </trkpt>
      <trkpt lat="43.61381" lon="6.94746">
        <ele>74.158813</ele>
        <time>2010-04-01T10:56:25Z</time>
      </trkpt>
      <trkpt lat="43.61381" lon="6.94744">
        <ele>80.407471</ele>
        <time>2010-04-01T10:56:50Z</time>
      </trkpt>
      <trkpt lat="43.61381" lon="6.94744">
        <ele>80.407471</ele>
        <time>2010-04-01T10:57:10Z</time>
      </trkpt>
      <trkpt lat="43.61396" lon="6.94711">
        <ele>82.330078</ele>
        <time>2010-04-01T10:57:34Z</time>
      </trkpt>
      <trkpt lat="43.61405" lon="6.94662">
        <ele>85.213989</ele>
        <time>2010-04-01T10:58:09Z</time>
      </trkpt>
      <trkpt lat="43.61401" lon="6.94632">
        <ele>83.771973</ele>
        <time>2010-04-01T10:58:31Z</time>
      </trkpt>
      <trkpt lat="43.61392" lon="6.94615">
        <ele>82.330078</ele>
        <time>2010-04-01T10:58:52Z</time>
      </trkpt>
      <trkpt lat="43.61377" lon="6.94598">
        <ele>80.407471</ele>
        <time>2010-04-01T10:59:19Z</time>
      </trkpt>
      <trkpt lat="43.61368" lon="6.94591">
        <ele>81.368774</ele>
        <time>2010-04-01T10:59:43Z</time>
      </trkpt>
      <trkpt lat="43.61353" lon="6.94581">
        <ele>79.446045</ele>
        <time>2010-04-01T10:59:57Z</time>
      </trkpt>
      <trkpt lat="43.61298" lon="6.94542">
        <ele>77.523438</ele>
        <time>2010-04-01T11:00:51Z</time>
      </trkpt>
      <trkpt lat="43.61285" lon="6.94542">
        <ele>76.562134</ele>
        <time>2010-04-01T11:01:06Z</time>
      </trkpt>
      <trkpt lat="43.61272" lon="6.94555">
        <ele>75.120239</ele>
        <time>2010-04-01T11:01:28Z</time>
      </trkpt>
      <trkpt lat="43.61261" lon="6.94585">
        <ele>76.081421</ele>
        <time>2010-04-01T11:02:25Z</time>
      </trkpt>
      <trkpt lat="43.61259" lon="6.94585">
        <ele>77.042847</ele>
        <time>2010-04-01T11:02:28Z</time>
      </trkpt>
      <trkpt lat="43.61231" lon="6.94591">
        <ele>78.484741</ele>
        <time>2010-04-01T11:03:02Z</time>
      </trkpt>
      <trkpt lat="43.61223" lon="6.94604">
        <ele>81.849365</ele>
        <time>2010-04-01T11:03:30Z</time>
      </trkpt>
      <trkpt lat="43.61225" lon="6.94624">
        <ele>82.330078</ele>
        <time>2010-04-01T11:03:55Z</time>
      </trkpt>
      <trkpt lat="43.61216" lon="6.94634">
        <ele>83.291382</ele>
        <time>2010-04-01T11:04:16Z</time>
      </trkpt>
      <trkpt lat="43.61195" lon="6.94619">
        <ele>80.407471</ele>
        <time>2010-04-01T11:04:45Z</time>
      </trkpt>
      <trkpt lat="43.61186" lon="6.94632">
        <ele>78.965454</ele>
        <time>2010-04-01T11:05:11Z</time>
      </trkpt>
      <trkpt lat="43.61169" lon="6.9466">
        <ele>83.771973</ele>
        <time>2010-04-01T11:05:45Z</time>
      </trkpt>
      <trkpt lat="43.61152" lon="6.94675">
        <ele>85.213989</ele>
        <time>2010-04-01T11:06:23Z</time>
      </trkpt>
      <trkpt lat="43.61143" lon="6.94684">
        <ele>88.578735</ele>
        <time>2010-04-01T11:06:53Z</time>
      </trkpt>
      <trkpt lat="43.61132" lon="6.94671">
        <ele>89.539917</ele>
        <time>2010-04-01T11:07:18Z</time>
      </trkpt>
      <trkpt lat="43.61122" lon="6.94681">
        <ele>92.42395</ele>
        <time>2010-04-01T11:07:42Z</time>
      </trkpt>
      <trkpt lat="43.6112" lon="6.94688">
        <ele>94.827148</ele>
        <time>2010-04-01T11:08:02Z</time>
      </trkpt>
      <trkpt lat="43.61107" lon="6.94714">
        <ele>94.827148</ele>
        <time>2010-04-01T11:08:38Z</time>
      </trkpt>
      <trkpt lat="43.611" lon="6.94724">
        <ele>96.749878</ele>
        <time>2010-04-01T11:08:56Z</time>
      </trkpt>
      <trkpt lat="43.61092" lon="6.94739">
        <ele>98.191895</ele>
        <time>2010-04-01T11:09:12Z</time>
      </trkpt>
      <trkpt lat="43.61087" lon="6.94752">
        <ele>99.633789</ele>
        <time>2010-04-01T11:09:28Z</time>
      </trkpt>
      <trkpt lat="43.61083" lon="6.94765">
        <ele>100.114502</ele>
        <time>2010-04-01T11:09:45Z</time>
      </trkpt>
      <trkpt lat="43.61072" lon="6.94789">
        <ele>102.998291</ele>
        <time>2010-04-01T11:10:08Z</time>
      </trkpt>
      <trkpt lat="43.61066" lon="6.9481">
        <ele>103.959717</ele>
        <time>2010-04-01T11:10:32Z</time>
      </trkpt>
      <trkpt lat="43.61055" lon="6.9484">
        <ele>104.44043</ele>
        <time>2010-04-01T11:11:18Z</time>
      </trkpt>
      <trkpt lat="43.61044" lon="6.94851">
        <ele>106.363037</ele>
        <time>2010-04-01T11:11:46Z</time>
      </trkpt>
      <trkpt lat="43.61029" lon="6.9486">
        <ele>109.727661</ele>
        <time>2010-04-01T11:12:22Z</time>
      </trkpt>
      <trkpt lat="43.61023" lon="6.94862">
        <ele>113.092285</ele>
        <time>2010-04-01T11:12:47Z</time>
      </trkpt>
      <trkpt lat="43.6101" lon="6.94875">
        <ele>115.014893</ele>
        <time>2010-04-01T11:13:09Z</time>
      </trkpt>
      <trkpt lat="43.61002" lon="6.94881">
        <ele>115.976196</ele>
        <time>2010-04-01T11:13:38Z</time>
      </trkpt>
      <trkpt lat="43.60993" lon="6.94894">
        <ele>116.456787</ele>
        <time>2010-04-01T11:13:55Z</time>
      </trkpt>
      <trkpt lat="43.60969" lon="6.94896">
        <ele>124.147339</ele>
        <time>2010-04-01T11:14:24Z</time>
      </trkpt>
      <trkpt lat="43.60961" lon="6.9489">
        <ele>126.550659</ele>
        <time>2010-04-01T11:14:38Z</time>
      </trkpt>
      <trkpt lat="43.60941" lon="6.9489">
        <ele>131.837891</ele>
        <time>2010-04-01T11:15:06Z</time>
      </trkpt>
    </trkseg>
  </trk>
</gpx>